Thunder radar more information blitzortung!


Radar de pluja more information rain snow radar


Visita la nostra xarxa de llocs de meteo:

Template documentation
and downloads

And another site



Wind From: 11-12-2017 11:00 Until: 14:59 warning for: Wind Level: Yellow info button

Pagina Historial Weather Underground text

Diari Resum Juliol 29, 2017 Unitats:  Mètric    Imperial   Tant
« Previous Dia
SegĂźent Dia »
Diari Setmana Mensual Anual Personalitzada
  Maxima: Minima: Media:
Temperatura: 34.9 °C 19.7 °C 28 °C
Punt de rosada: 19.9 °C 12.6 °C 16.3 °C
Humitat: 88 % 29 % 52 %
Wind Speed: 24.1 km/h 0.0 km/h 6.5 km/h
RĂ fegues de vent: 24.1 km/h - -
Vent:- - South
Pression baro: 1015.8 hPa 1011.7 hPa -
Precipitacions: 0.0 mm    
Historical Graphs
 
 
Dades de taula per Juliol 29, 2017
Temps Temperatura Punt de rosada Pression baro Vent Wind Speed RĂ fegues de vent Humitat Rainfall Rate (Hourly)
00:00 20.6 °C 18.0 °C 1015.8 hPa Calm   3.2 km/h 85 % 0.0 mm
00:03 22.9 °C 19.1 °C 1015.8 hPa NNE 5.6 km/h 5.6 km/h 79 % 0.0 mm
00:10 20.4 °C 17.8 °C 1015.8 hPa Calm   1.6 km/h 85 % 0.0 mm
00:20 20.4 °C 17.8 °C 1014.8 hPa Calm     85 % 0.0 mm
00:30 20.3 °C 17.9 °C 1014.8 hPa SW 1.6 km/h 3.2 km/h 86 % 0.0 mm
00:40 20.2 °C 17.8 °C 1014.8 hPa SW 1.6 km/h 3.2 km/h 86 % 0.0 mm
00:50 20.2 °C 17.9 °C 1014.8 hPa Calm   1.6 km/h 87 % 0.0 mm
01:00 20.2 °C 17.9 °C 1014.8 hPa Calm     87 % 0.0 mm
01:10 20.1 °C 17.9 °C 1014.8 hPa Calm     87 % 0.0 mm
01:20 20.1 °C 18.1 °C 1014.8 hPa Calm     88 % 0.0 mm
01:30 19.9 °C 17.8 °C 1014.8 hPa Calm     88 % 0.0 mm
01:40 19.9 °C 17.8 °C 1014.8 hPa Calm     88 % 0.0 mm
01:50 19.8 °C 17.8 °C 1014.8 hPa Calm     88 % 0.0 mm
02:00 19.7 °C 17.7 °C 1014.8 hPa Calm     88 % 0.0 mm
02:10 19.7 °C 17.7 °C 1015.8 hPa Calm     88 % 0.0 mm
02:20 19.8 °C 17.8 °C 1014.8 hPa Calm     88 % 0.0 mm
02:30 19.8 °C 17.8 °C 1014.8 hPa South 1.6 km/h 1.6 km/h 88 % 0.0 mm
02:40 19.9 °C 17.8 °C 1014.8 hPa Calm   3.2 km/h 88 % 0.0 mm
02:50 20.2 °C 18.2 °C 1015.8 hPa WSW 1.6 km/h 1.6 km/h 88 % 0.0 mm
03:00 20.6 °C 18.6 °C 1015.8 hPa Calm   1.6 km/h 88 % 0.0 mm
03:10 21.0 °C 18.8 °C 1015.8 hPa ESE 1.6 km/h 3.2 km/h 87 % 0.0 mm
03:20 21.3 °C 18.9 °C 1015.8 hPa East 1.6 km/h 1.6 km/h 86 % 0.0 mm
03:30 21.5 °C 18.9 °C 1015.8 hPa SSE 3.2 km/h 3.2 km/h 85 % 0.0 mm
03:40 22.0 °C 19.2 °C 1015.8 hPa SSW 1.6 km/h 3.2 km/h 84 % 0.0 mm
04:00 23.3 °C 19.1 °C 1015.8 hPa ENE 1.6 km/h 3.2 km/h 77 % 0.0 mm
04:10 23.5 °C 19.0 °C 1015.8 hPa ENE 4.8 km/h 4.8 km/h 76 % 0.0 mm
04:20 24.5 °C 19.6 °C 1015.8 hPa ENE 1.6 km/h 3.2 km/h 74 % 0.0 mm
04:30 24.4 °C 19.0 °C 1015.8 hPa ENE 3.2 km/h 6.4 km/h 72 % 0.0 mm
04:40 25.1 °C 19.4 °C 1014.8 hPa Calm   3.2 km/h 71 % 0.0 mm
04:50 25.5 °C 19.2 °C 1015.8 hPa NNE 1.6 km/h 3.2 km/h 68 % 0.0 mm
05:00 26.1 °C 19.2 °C 1015.8 hPa ESE 4.8 km/h 6.4 km/h 66 % 0.0 mm
05:10 26.0 °C 18.9 °C 1015.8 hPa ESE 3.2 km/h 6.4 km/h 65 % 0.0 mm
05:20 26.4 °C 19.3 °C 1015.8 hPa East 3.2 km/h 6.4 km/h 65 % 0.0 mm
05:30 26.4 °C 18.6 °C 1015.8 hPa NE 8.0 km/h 8.0 km/h 62 % 0.0 mm
10:33 26.5 °C 18.6 °C 1015.8 hPa ENE 5.6 km/h 5.6 km/h 62 % 0.0 mm
10:38 26.7 °C 17.8 °C 1015.8 hPa East 9.3 km/h 9.3 km/h 58 % 0.0 mm
10:43 26.8 °C 17.8 °C 1015.8 hPa NNE 5.6 km/h 5.6 km/h 58 % 0.0 mm
10:48 27.1 °C 17.8 °C 1015.8 hPa SSE 5.6 km/h 5.6 km/h 57 % 0.0 mm
10:53 27.8 °C 18.8 °C 1015.8 hPa SW 3.9 km/h 3.9 km/h 58 % 0.0 mm
10:58 27.7 °C 18.9 °C 1015.8 hPa SW 7.4 km/h 7.4 km/h 59 % 0.0 mm
11:03 28.1 °C 19.1 °C 1014.8 hPa NW 3.9 km/h 3.9 km/h 58 % 0.0 mm
11:08 28.1 °C 19.1 °C 1014.8 hPa SSW 3.7 km/h 3.7 km/h 58 % 0.0 mm
11:13 29.1 °C 19.1 °C 1014.8 hPa SSE 4.2 km/h 4.2 km/h 55 % 0.0 mm
11:18 29.2 °C 19.2 °C 1014.8 hPa NE 7.4 km/h 7.4 km/h 55 % 0.0 mm
11:24 28.4 °C 18.5 °C 1014.8 hPa ESE 7.4 km/h 7.4 km/h 55 % 0.0 mm
11:29 28.6 °C 18.9 °C 1014.8 hPa ESE 5.6 km/h 5.6 km/h 56 % 0.0 mm
11:34 28.8 °C 18.8 °C 1014.8 hPa ENE 4.7 km/h 4.7 km/h 55 % 0.0 mm
11:39 28.4 °C 18.5 °C 1014.8 hPa East 7.4 km/h 7.4 km/h 55 % 0.0 mm
11:41 28.6 °C 18.7 °C 1014.8 hPa SSW 3.7 km/h 3.7 km/h 55 % 0.0 mm
11:46 29.6 °C 19.0 °C 1014.8 hPa South 7.4 km/h 7.4 km/h 53 % 0.0 mm
11:51 30.3 °C 19.9 °C 1014.8 hPa WSW 5.8 km/h 5.8 km/h 54 % 0.0 mm
11:56 29.9 °C 19.0 °C 1014.8 hPa East 5.6 km/h 5.6 km/h 52 % 0.0 mm
12:01 30.2 °C 18.9 °C 1014.8 hPa SE 7.6 km/h 7.6 km/h 51 % 0.0 mm
12:06 30.8 °C 19.8 °C 1014.8 hPa SE 3.7 km/h 3.7 km/h 52 % 0.0 mm
12:11 30.3 °C 18.7 °C 1014.8 hPa ESE 7.6 km/h 7.6 km/h 50 % 0.0 mm
12:13 30.0 °C 18.8 °C 1014.8 hPa ENE 7.4 km/h 7.4 km/h 51 % 0.0 mm
12:18 29.8 °C 18.6 °C 1014.8 hPa NNE 9.3 km/h 9.3 km/h 51 % 0.0 mm
12:23 30.2 °C 18.6 °C 1014.8 hPa SE 5.6 km/h 5.6 km/h 50 % 0.0 mm
12:28 31.0 °C 19.3 °C 1014.8 hPa WSW 7.4 km/h 7.4 km/h 50 % 0.0 mm
12:33 31.6 °C 19.6 °C 1014.8 hPa SSE 2.6 km/h 2.6 km/h 49 % 0.0 mm
12:38 31.8 °C 19.8 °C 1014.8 hPa WNW 7.4 km/h 7.4 km/h 49 % 0.0 mm
12:43 30.8 °C 18.5 °C 1014.8 hPa East 11.1 km/h 11.1 km/h 48 % 0.0 mm
12:48 30.5 °C 18.9 °C 1013.8 hPa NE 7.4 km/h 7.4 km/h 50 % 0.0 mm
12:53 30.9 °C 18.9 °C 1013.8 hPa SSE 13.0 km/h 13.0 km/h 49 % 0.0 mm
13:03 31.1 °C 18.8 °C 1013.8 hPa ESE 11.1 km/h 11.1 km/h 48 % 0.0 mm
13:08 30.4 °C 18.5 °C 1013.8 hPa ESE 13.0 km/h 13.0 km/h 49 % 0.0 mm
13:13 30.3 °C 18.7 °C 1013.8 hPa SE 13.0 km/h 13.0 km/h 50 % 0.0 mm
13:18 30.3 °C 18.7 °C 1013.8 hPa ESE 18.5 km/h 18.5 km/h 50 % 0.0 mm
13:23 30.3 °C 18.7 °C 1013.8 hPa ENE 14.8 km/h 14.8 km/h 50 % 0.0 mm
13:28 30.3 °C 18.7 °C 1013.8 hPa NE 14.8 km/h 14.8 km/h 50 % 0.0 mm
13:33 30.6 °C 19.0 °C 1013.8 hPa ESE 11.1 km/h 11.1 km/h 50 % 0.0 mm
13:38 30.3 °C 18.4 °C 1013.8 hPa SE 18.5 km/h 18.5 km/h 49 % 0.0 mm
13:43 30.3 °C 18.7 °C 1013.8 hPa SSE 17.5 km/h 17.5 km/h 50 % 0.0 mm
13:48 30.5 °C 18.9 °C 1013.8 hPa ENE 16.7 km/h 16.7 km/h 50 % 0.0 mm
13:53 30.5 °C 18.6 °C 1013.8 hPa ESE 18.5 km/h 18.5 km/h 49 % 0.0 mm
13:58 30.6 °C 18.7 °C 1013.8 hPa ESE 16.7 km/h 16.7 km/h 49 % 0.0 mm
14:03 30.8 °C 18.8 °C 1013.8 hPa SSE 16.7 km/h 16.7 km/h 49 % 0.0 mm
14:08 30.4 °C 18.5 °C 1013.8 hPa SE 24.1 km/h 24.1 km/h 49 % 0.0 mm
14:13 30.5 °C 18.9 °C 1013.8 hPa ESE 16.7 km/h 16.7 km/h 50 % 0.0 mm
14:18 30.5 °C 18.9 °C 1013.8 hPa ENE 16.7 km/h 16.7 km/h 50 % 0.0 mm
14:23 30.2 °C 18.6 °C 1013.8 hPa ESE 19.8 km/h 19.8 km/h 50 % 0.0 mm
14:28 30.4 °C 18.8 °C 1013.8 hPa WSW 9.3 km/h 9.3 km/h 50 % 0.0 mm
14:33 30.6 °C 19.0 °C 1013.8 hPa ESE 13.0 km/h 13.0 km/h 50 % 0.0 mm
14:38 30.7 °C 19.1 °C 1013.8 hPa SSW 9.3 km/h 9.3 km/h 50 % 0.0 mm
14:43 31.2 °C 18.9 °C 1013.8 hPa SE 11.1 km/h 11.1 km/h 48 % 0.0 mm
14:48 32.5 °C 18.7 °C 1012.8 hPa South 7.6 km/h 7.6 km/h 44 % 0.0 mm
14:53 33.5 °C 18.4 °C 1012.8 hPa SW 9.0 km/h 9.0 km/h 41 % 0.0 mm
14:58 33.6 °C 18.6 °C 1012.8 hPa West 13.0 km/h 13.0 km/h 41 % 0.0 mm
15:03 33.7 °C 17.4 °C 1012.8 hPa South 7.4 km/h 7.4 km/h 38 % 0.0 mm
15:13 33.7 °C 17.4 °C 1013.8 hPa SW 11.1 km/h 11.1 km/h 38 % 0.0 mm
15:18 33.9 °C 17.2 °C 1013.8 hPa SSW 13.0 km/h 13.0 km/h 37 % 0.0 mm
15:23 34.2 °C 17.0 °C 1013.8 hPa WSW 5.6 km/h 5.6 km/h 36 % 0.0 mm
15:28 34.0 °C 16.4 °C 1013.8 hPa SW 7.4 km/h 7.4 km/h 35 % 0.0 mm
15:33 34.6 °C 17.3 °C 1013.8 hPa WSW 6.1 km/h 6.1 km/h 36 % 0.0 mm
15:38 34.9 °C 16.7 °C 1013.8 hPa SW 11.1 km/h 11.1 km/h 34 % 0.0 mm
15:43 34.6 °C 16.4 °C 1013.8 hPa West 7.4 km/h 7.4 km/h 34 % 0.0 mm
15:48 34.8 °C 16.2 °C 1013.8 hPa SSW 5.6 km/h 5.6 km/h 33 % 0.0 mm
15:53 34.8 °C 16.2 °C 1013.8 hPa South 9.3 km/h 9.3 km/h 33 % 0.0 mm
15:58 34.5 °C 15.4 °C 1013.8 hPa West 9.3 km/h 9.3 km/h 32 % 0.0 mm
16:03 34.4 °C 15.3 °C 1013.8 hPa SSW 11.4 km/h 11.4 km/h 32 % 0.0 mm
16:08 34.4 °C 14.8 °C 1013.8 hPa South 14.8 km/h 14.8 km/h 31 % 0.0 mm
16:13 34.2 °C 15.2 °C 1013.8 hPa WSW 5.8 km/h 5.8 km/h 32 % 0.0 mm
16:18 33.9 °C 14.9 °C 1013.8 hPa SSW 7.4 km/h 7.4 km/h 32 % 0.0 mm
16:23 33.9 °C 14.4 °C 1013.8 hPa SW 20.4 km/h 20.4 km/h 31 % 0.0 mm
16:28 34.0 °C 14.5 °C 1013.8 hPa SW 9.3 km/h 9.3 km/h 31 % 0.0 mm
16:33 34.1 °C 14.1 °C 1013.8 hPa South 14.8 km/h 14.8 km/h 30 % 0.0 mm
16:38 34.2 °C 14.2 °C 1013.8 hPa SSW 7.4 km/h 7.4 km/h 30 % 0.0 mm
16:43 34.4 °C 14.8 °C 1013.8 hPa WSW 6.4 km/h 6.4 km/h 31 % 0.0 mm
16:48 34.5 °C 14.9 °C 1013.8 hPa SW 9.3 km/h 9.3 km/h 31 % 0.0 mm
16:53 34.1 °C 14.1 °C 1012.8 hPa SW 15.6 km/h 15.6 km/h 30 % 0.0 mm
16:58 33.5 °C 13.6 °C 1012.8 hPa SSW 11.1 km/h 11.1 km/h 30 % 0.0 mm
17:03 33.5 °C 13.6 °C 1013.8 hPa WNW 13.0 km/h 13.0 km/h 30 % 0.0 mm
17:08 33.6 °C 13.6 °C 1013.8 hPa SW 11.1 km/h 11.1 km/h 30 % 0.0 mm
17:18 33.5 °C 13.0 °C 1013.8 hPa ESE 7.4 km/h 7.4 km/h 29 % 0.0 mm
17:23 33.6 °C 13.6 °C 1013.8 hPa SW 9.3 km/h 9.3 km/h 30 % 0.0 mm
17:28 33.0 °C 12.6 °C 1013.8 hPa South 14.8 km/h 14.8 km/h 29 % 0.0 mm
17:33 32.9 °C 13.1 °C 1012.8 hPa South 11.1 km/h 11.1 km/h 30 % 0.0 mm
17:38 33.1 °C 12.7 °C 1012.8 hPa SSW 13.0 km/h 13.0 km/h 29 % 0.0 mm
17:43 32.5 °C 12.7 °C 1012.8 hPa SSW 11.1 km/h 11.1 km/h 30 % 0.0 mm
17:48 32.9 °C 13.1 °C 1013.8 hPa SSW 9.3 km/h 9.3 km/h 30 % 0.0 mm
17:53 32.8 °C 12.9 °C 1013.8 hPa SW 13.0 km/h 13.0 km/h 30 % 0.0 mm
17:58 32.9 °C 13.6 °C 1013.8 hPa ESE 7.4 km/h 7.4 km/h 31 % 0.0 mm
18:03 32.9 °C 13.6 °C 1012.8 hPa SW 11.1 km/h 11.1 km/h 31 % 0.0 mm
18:08 32.6 °C 13.3 °C 1012.8 hPa SW 9.3 km/h 9.3 km/h 31 % 0.0 mm
18:13 32.5 °C 13.2 °C 1012.8 hPa SW 14.8 km/h 14.8 km/h 31 % 0.0 mm
18:18 32.1 °C 12.8 °C 1012.8 hPa SW 13.0 km/h 13.0 km/h 31 % 0.0 mm
18:23 31.9 °C 12.7 °C 1012.8 hPa SW 16.7 km/h 16.7 km/h 31 % 0.0 mm
18:33 32.1 °C 13.3 °C 1013.8 hPa SW 11.1 km/h 11.1 km/h 32 % 0.0 mm
18:38 32.0 °C 13.2 °C 1013.8 hPa SW 6.1 km/h 6.1 km/h 32 % 0.0 mm
18:43 32.1 °C 13.3 °C 1013.8 hPa SSW 5.6 km/h 5.6 km/h 32 % 0.0 mm
18:48 32.2 °C 13.4 °C 1012.8 hPa SSW 7.6 km/h 7.6 km/h 32 % 0.0 mm
18:53 31.7 °C 13.4 °C 1012.8 hPa WSW 13.0 km/h 13.0 km/h 33 % 0.0 mm
18:58 31.6 °C 13.4 °C 1012.8 hPa South 11.1 km/h 11.1 km/h 33 % 0.0 mm
19:03 31.7 °C 13.9 °C 1012.8 hPa SW 9.3 km/h 9.3 km/h 34 % 0.0 mm
19:08 31.4 °C 13.7 °C 1012.8 hPa SW 9.3 km/h 9.3 km/h 34 % 0.0 mm
19:13 31.0 °C 13.3 °C 1012.8 hPa SW 13.0 km/h 13.0 km/h 34 % 0.0 mm
19:18 31.2 °C 13.5 °C 1012.8 hPa SW 9.3 km/h 9.3 km/h 34 % 0.0 mm
19:23 30.9 °C 13.7 °C 1012.8 hPa South 9.7 km/h 9.7 km/h 35 % 0.0 mm
19:28 30.5 °C 13.7 °C 1012.8 hPa WSW 10.0 km/h 10.0 km/h 36 % 0.0 mm
19:33 30.6 °C 13.8 °C 1012.8 hPa SSE 6.9 km/h 6.9 km/h 36 % 0.0 mm
19:38 30.4 °C 13.7 °C 1012.8 hPa SW 7.4 km/h 7.4 km/h 36 % 0.0 mm
19:43 30.4 °C 13.7 °C 1012.8 hPa SW 9.3 km/h 9.3 km/h 36 % 0.0 mm
19:48 30.3 °C 13.6 °C 1012.8 hPa SW 7.9 km/h 7.9 km/h 36 % 0.0 mm
19:53 30.0 °C 13.3 °C 1012.8 hPa SW 7.4 km/h 7.4 km/h 36 % 0.0 mm
19:58 29.8 °C 13.6 °C 1012.8 hPa SW 11.1 km/h 11.1 km/h 37 % 0.0 mm
20:03 29.7 °C 13.9 °C 1011.7 hPa SW 5.6 km/h 5.6 km/h 38 % 0.0 mm
20:08 29.6 °C 13.8 °C 1011.7 hPa SSW 3.7 km/h 3.7 km/h 38 % 0.0 mm
20:13 29.5 °C 13.7 °C 1011.7 hPa South 9.3 km/h 9.3 km/h 38 % 0.0 mm
20:18 29.4 °C 13.6 °C 1012.8 hPa SE 5.0 km/h 5.0 km/h 38 % 0.0 mm
20:23 29.3 °C 13.5 °C 1012.8 hPa SW 6.4 km/h 6.4 km/h 38 % 0.0 mm
20:28 29.2 °C 13.8 °C 1012.8 hPa West 7.4 km/h 7.4 km/h 39 % 0.0 mm
20:33 29.0 °C 13.7 °C 1011.7 hPa WSW 3.7 km/h 3.7 km/h 39 % 0.0 mm
20:38 28.9 °C 14.3 °C 1011.7 hPa West 7.4 km/h 7.4 km/h 41 % 0.0 mm
20:40 23.0 °C 16.3 °C 1012.8 hPa Calm     66 % 0.0 mm
20:43 28.6 °C 14.1 °C 1011.7 hPa SW 5.6 km/h 5.6 km/h 41 % 0.0 mm
20:48 28.5 °C 13.9 °C 1012.8 hPa SW 4.7 km/h 4.7 km/h 41 % 0.0 mm
20:50 23.0 °C 16.6 °C 1012.8 hPa Calm     67 % 0.0 mm
20:53 28.4 °C 14.2 °C 1012.8 hPa SW 3.7 km/h 3.7 km/h 42 % 0.0 mm
20:58 28.2 °C 14.1 °C 1012.8 hPa SW 5.8 km/h 5.8 km/h 42 % 0.0 mm
21:00 22.9 °C 16.4 °C 1012.8 hPa Calm     67 % 0.0 mm
21:03 28.0 °C 13.9 °C 1012.8 hPa WSW 7.6 km/h 7.6 km/h 42 % 0.0 mm
21:08 27.8 °C 14.1 °C 1012.8 hPa WSW 5.8 km/h 5.8 km/h 43 % 0.0 mm
21:10 22.8 °C 16.6 °C 1012.8 hPa Calm     68 % 0.0 mm
21:13 27.6 °C 13.9 °C 1012.8 hPa SW 5.6 km/h 5.6 km/h 43 % 0.0 mm
21:18 27.5 °C 14.2 °C 1012.8 hPa SW 4.7 km/h 4.7 km/h 44 % 0.0 mm
21:20 22.7 °C 16.5 °C 1013.8 hPa Calm   3.2 km/h 68 % 0.0 mm
21:23 27.3 °C 14.0 °C 1012.8 hPa SSW 5.6 km/h 5.6 km/h 44 % 0.0 mm
21:28 27.2 °C 14.2 °C 1012.8 hPa SW 5.6 km/h 5.6 km/h 45 % 0.0 mm
21:33 27.0 °C 14.1 °C 1012.8 hPa SW 3.7 km/h 3.7 km/h 45 % 0.0 mm
21:38 26.8 °C 14.6 °C 1012.8 hPa SW 5.6 km/h 5.6 km/h 47 % 0.0 mm
21:40 22.3 °C 16.3 °C 1012.8 hPa Calm   1.6 km/h 69 % 0.0 mm
21:43 26.7 °C 14.4 °C 1012.8 hPa SW 3.7 km/h 3.7 km/h 47 % 0.0 mm
21:48 26.6 °C 14.3 °C 1012.8 hPa SW 5.6 km/h 5.6 km/h 47 % 0.0 mm
21:50 22.2 °C 16.2 °C 1012.8 hPa ENE 1.6 km/h 3.2 km/h 69 % 0.0 mm
21:53 26.5 °C 14.6 °C 1012.8 hPa SW 3.7 km/h 3.7 km/h 48 % 0.0 mm
21:58 26.3 °C 14.4 °C 1012.8 hPa SW 4.2 km/h 4.2 km/h 48 % 0.0 mm
22:00 22.1 °C 16.2 °C 1012.8 hPa ENE 1.6 km/h 3.2 km/h 69 % 0.0 mm
22:03 26.2 °C 14.7 °C 1013.8 hPa SSW 1.9 km/h 1.9 km/h 49 % 0.0 mm
22:08 26.1 °C 14.6 °C 1013.8 hPa WSW 1.9 km/h 1.9 km/h 49 % 0.0 mm
22:10 21.8 °C 15.8 °C 1012.8 hPa NE 3.2 km/h 3.2 km/h 69 % 0.0 mm
22:13 26.1 °C 14.6 °C 1013.8 hPa WSW 3.7 km/h 3.7 km/h 49 % 0.0 mm
22:18 25.9 °C 14.7 °C 1013.8 hPa WSW 1.9 km/h   50 % 0.0 mm
22:20 21.6 °C 15.7 °C 1012.8 hPa NE 1.6 km/h 3.2 km/h 69 % 0.0 mm
22:23 25.8 °C 14.6 °C 1013.8 hPa WSW 3.7 km/h 3.7 km/h 50 % 0.0 mm
22:28 25.8 °C 14.9 °C 1013.8 hPa Calm     51 % 0.0 mm
22:30 21.6 °C 15.4 °C 1012.8 hPa Calm   3.2 km/h 68 % 0.0 mm
22:33 25.7 °C 14.8 °C 1013.8 hPa West 1.9 km/h   51 % 0.0 mm
22:38 25.6 °C 15.0 °C 1013.8 hPa West 2.3 km/h   52 % 0.0 mm
22:40 21.5 °C 15.1 °C 1011.7 hPa Calm     67 % 0.0 mm
22:43 25.6 °C 15.0 °C 1013.8 hPa West 1.9 km/h   52 % 0.0 mm
22:48 25.5 °C 15.2 °C 1013.8 hPa West 1.9 km/h 1.9 km/h 53 % 0.0 mm
22:50 21.4 °C 15.7 °C 1012.8 hPa Calm     70 % 0.0 mm
22:53 25.5 °C 15.2 °C 1013.8 hPa WSW 3.7 km/h 3.7 km/h 53 % 0.0 mm
22:58 25.4 °C 15.4 °C 1013.8 hPa WSW 3.7 km/h 3.7 km/h 54 % 0.0 mm
23:00 21.1 °C 14.9 °C 1012.8 hPa Calm     68 % 0.0 mm
23:03 25.4 °C 15.4 °C 1012.8 hPa SW 3.7 km/h 3.7 km/h 54 % 0.0 mm
23:08 25.3 °C 15.3 °C 1012.8 hPa SW 1.9 km/h   54 % 0.0 mm
23:10 21.2 °C 14.8 °C 1011.7 hPa Calm     67 % 0.0 mm
23:13 25.1 °C 15.4 °C 1012.8 hPa WSW 1.9 km/h   55 % 0.0 mm
23:18 25.1 °C 15.4 °C 1012.8 hPa West 3.7 km/h 3.7 km/h 55 % 0.0 mm
23:20 21.2 °C 15.3 °C 1011.7 hPa Calm     69 % 0.0 mm
23:23 25.0 °C 15.6 °C 1012.8 hPa WSW 1.9 km/h   56 % 0.0 mm
23:28 25.0 °C 15.6 °C 1012.8 hPa West 2.3 km/h 2.3 km/h 56 % 0.0 mm
23:30 21.1 °C 14.9 °C 1011.7 hPa NNE 1.6 km/h 1.6 km/h 68 % 0.0 mm
23:33 25.0 °C 15.6 °C 1013.8 hPa West 3.2 km/h 3.2 km/h 56 % 0.0 mm
23:38 24.9 °C 15.8 °C 1013.8 hPa WSW 3.7 km/h 3.7 km/h 57 % 0.0 mm
23:40 21.2 °C 14.8 °C 1011.7 hPa Calm   1.6 km/h 67 % 0.0 mm
23:43 24.9 °C 16.1 °C 1013.8 hPa WSW 3.7 km/h   58 % 0.0 mm
23:49 24.8 °C 16.0 °C 1013.8 hPa West 1.9 km/h   58 % 0.0 mm
23:50 21.1 °C 15.2 °C 1011.7 hPa Calm     69 % 0.0 mm
23:54 24.7 °C 16.2 °C 1013.8 hPa West 1.9 km/h   59 % 0.0 mm
23:59 24.7 °C 16.2 °C 1013.8 hPa WNW 3.7 km/h 3.7 km/h 59 % 0.0 mm
Meteo Sesrovires
Elogis d' Weather Underground - 3.5 mb

Guio original per  Jim McMurry - jmcmurry@mwt.net Adaptat per a la plantilla per  Wim van der Kuil - Leuven-Template.eu

Trobareu la nostra informacio del temps tambe a:

Weather Underground

AWEKAS